createdAt,value
2018-10-07T00:01:39.388Z,17.10
2018-10-07T00:04:42.293Z,17.00
2018-10-07T00:07:45.221Z,17.10
2018-10-07T00:10:48.165Z,17.10
2018-10-07T00:13:51.066Z,17.20
2018-10-07T00:16:53.971Z,17.30
2018-10-07T00:19:56.929Z,17.20
2018-10-07T00:22:59.813Z,17.30
2018-10-07T00:26:02.769Z,17.30
2018-10-07T00:29:05.756Z,17.30
2018-10-07T00:32:15.629Z,17.30
2018-10-07T00:35:18.539Z,17.30
2018-10-07T00:38:21.475Z,17.30
2018-10-07T00:41:24.393Z,17.30
2018-10-07T00:44:27.308Z,17.30
2018-10-07T00:47:30.221Z,17.30
2018-10-07T00:50:33.194Z,17.30
2018-10-07T00:53:36.193Z,17.30
2018-10-07T00:56:39.208Z,17.30
2018-10-07T00:59:42.154Z,17.30
2018-10-07T01:02:45.110Z,17.30
2018-10-07T01:05:47.962Z,17.30
2018-10-07T01:08:50.924Z,17.30
2018-10-07T01:11:53.973Z,17.30
2018-10-07T01:14:57.077Z,17.30
2018-10-07T01:17:59.965Z,17.20
2018-10-07T01:21:02.977Z,17.20
2018-10-07T01:24:05.985Z,17.00
2018-10-07T01:27:08.937Z,17.20
2018-10-07T01:30:11.894Z,17.20
2018-10-07T01:33:14.832Z,17.30
2018-10-07T01:36:18.093Z,17.30
2018-10-07T01:39:21.014Z,17.20
2018-10-07T01:42:24.026Z,17.20
2018-10-07T01:45:26.938Z,17.20
2018-10-07T01:48:29.885Z,17.20
2018-10-07T01:51:32.793Z,17.10
2018-10-07T01:54:35.708Z,17.10
2018-10-07T01:57:38.769Z,17.20
2018-10-07T02:00:41.670Z,17.30
2018-10-07T02:03:44.649Z,17.30
2018-10-07T02:06:47.582Z,17.20
2018-10-07T02:09:50.530Z,17.20
2018-10-07T02:12:53.437Z,17.30
2018-10-07T02:15:56.374Z,17.30
2018-10-07T02:18:59.299Z,17.40
2018-10-07T02:22:02.271Z,17.40
2018-10-07T02:25:05.305Z,17.30
2018-10-07T02:28:08.224Z,17.40
2018-10-07T02:31:11.172Z,17.40
2018-10-07T02:34:14.087Z,17.30
2018-10-07T02:37:17.017Z,17.40
2018-10-07T02:40:20.015Z,17.40
2018-10-07T02:43:23.003Z,17.40
2018-10-07T02:46:25.969Z,17.40
2018-10-07T02:49:28.906Z,17.40
2018-10-07T02:52:37.605Z,17.30
2018-10-07T02:55:40.621Z,17.30
2018-10-07T02:58:43.601Z,17.30
2018-10-07T03:01:46.545Z,17.30
2018-10-07T03:04:49.545Z,17.40
2018-10-07T03:07:52.528Z,17.40
2018-10-07T03:10:55.486Z,17.30
2018-10-07T03:13:58.442Z,17.30
2018-10-07T03:17:01.401Z,17.30
2018-10-07T03:20:04.446Z,17.30
2018-10-07T03:23:07.720Z,17.30
2018-10-07T03:26:10.653Z,17.30
2018-10-07T03:29:13.691Z,17.30
2018-10-07T03:32:16.653Z,17.30
2018-10-07T03:35:19.734Z,17.30
2018-10-07T03:38:22.697Z,17.30
2018-10-07T03:41:25.700Z,17.30
2018-10-07T03:44:28.612Z,17.20
2018-10-07T03:47:31.549Z,17.00
2018-10-07T03:50:34.458Z,17.10
2018-10-07T03:53:37.389Z,17.00
2018-10-07T03:56:40.429Z,16.90
2018-10-07T03:59:43.507Z,16.80
2018-10-07T04:02:46.486Z,16.70
2018-10-07T04:05:49.525Z,16.60
2018-10-07T04:08:52.470Z,16.40
2018-10-07T04:11:55.411Z,16.50
2018-10-07T04:14:58.324Z,16.40
2018-10-07T04:18:01.254Z,16.40
2018-10-07T04:21:04.165Z,16.40
2018-10-07T04:24:07.133Z,16.50
2018-10-07T04:27:10.022Z,16.30
2018-10-07T04:30:13.142Z,16.10
2018-10-07T04:33:16.050Z,16.10
2018-10-07T04:36:19.120Z,16.10
2018-10-07T04:39:22.071Z,15.90
2018-10-07T04:42:24.985Z,15.80
2018-10-07T04:45:27.926Z,16.00
2018-10-07T04:48:30.845Z,16.00
2018-10-07T04:51:33.814Z,15.90
2018-10-07T04:54:36.745Z,16.00
2018-10-07T04:57:39.806Z,15.90
2018-10-07T05:00:42.785Z,15.60
2018-10-07T05:03:46.129Z,15.50
2018-10-07T05:06:49.170Z,15.70
2018-10-07T05:10:08.231Z,15.50
2018-10-07T05:13:11.677Z,15.50
2018-10-07T05:16:21.298Z,15.60
2018-10-07T05:19:24.253Z,15.50
2018-10-07T05:22:27.217Z,15.30
2018-10-07T05:25:30.282Z,15.40
2018-10-07T05:28:33.285Z,15.40
2018-10-07T05:31:36.201Z,15.50
2018-10-07T05:34:39.218Z,15.60
2018-10-07T05:37:42.164Z,15.50
2018-10-07T05:40:45.113Z,15.60
2018-10-07T05:43:48.129Z,15.60
2018-10-07T05:46:51.074Z,15.50
2018-10-07T05:49:54.021Z,15.60
2018-10-07T05:52:57.006Z,15.50
2018-10-07T05:55:59.981Z,15.60
2018-10-07T05:59:03.881Z,15.60
2018-10-07T06:02:07.864Z,15.60
2018-10-07T06:05:11.417Z,15.50
2018-10-07T06:08:16.818Z,15.50
2018-10-07T06:11:20.065Z,15.40
2018-10-07T06:14:40.547Z,15.40
2018-10-07T06:17:43.430Z,15.40
2018-10-07T06:20:46.389Z,15.50
2018-10-07T06:23:49.497Z,15.50
2018-10-07T06:26:52.756Z,15.50
2018-10-07T06:29:55.848Z,15.50
2018-10-07T06:32:58.749Z,15.40
2018-10-07T06:36:01.729Z,15.40
2018-10-07T06:39:04.717Z,15.40
2018-10-07T06:42:07.865Z,15.20
2018-10-07T06:45:10.874Z,15.30
2018-10-07T06:48:13.806Z,15.10
2018-10-07T06:51:16.765Z,15.20
2018-10-07T06:54:19.698Z,15.20
2018-10-07T06:57:22.667Z,15.30
2018-10-07T07:00:25.686Z,15.20
2018-10-07T07:03:28.702Z,15.10
2018-10-07T07:06:31.659Z,15.10
2018-10-07T07:09:34.529Z,14.90
2018-10-07T07:12:37.422Z,14.80
2018-10-07T07:15:40.352Z,14.80
2018-10-07T07:18:43.256Z,14.90
2018-10-07T07:21:46.208Z,14.90
2018-10-07T07:24:49.103Z,14.80
2018-10-07T07:27:52.084Z,14.90
2018-10-07T07:30:55.077Z,14.80
2018-10-07T07:33:58.014Z,14.60
2018-10-07T07:37:01.069Z,14.50
2018-10-07T07:40:04.061Z,14.40
2018-10-07T07:43:06.954Z,14.50
2018-10-07T07:46:09.910Z,14.70
2018-10-07T07:49:12.869Z,14.80
2018-10-07T07:52:15.841Z,14.90
2018-10-07T07:55:18.771Z,14.90
2018-10-07T07:58:21.706Z,14.90
2018-10-07T08:01:24.663Z,15.00
2018-10-07T08:04:27.585Z,15.00
2018-10-07T08:07:30.564Z,14.90
2018-10-07T08:10:33.455Z,14.90
2018-10-07T08:13:36.429Z,14.90
2018-10-07T08:16:39.361Z,14.80
2018-10-07T08:19:42.292Z,15.00
2018-10-07T08:22:45.193Z,14.90
2018-10-07T08:25:48.102Z,14.70
2018-10-07T08:28:51.030Z,14.80
2018-10-07T08:31:53.902Z,14.80
2018-10-07T08:34:56.798Z,14.90
2018-10-07T08:37:59.789Z,15.10
2018-10-07T08:41:02.769Z,14.90
2018-10-07T08:44:05.864Z,14.90
2018-10-07T08:47:08.906Z,15.00
2018-10-07T08:50:11.965Z,15.00
2018-10-07T08:53:14.917Z,15.00
2018-10-07T08:56:17.973Z,14.90
2018-10-07T08:59:20.941Z,15.00
2018-10-07T09:02:23.901Z,15.00
2018-10-07T09:05:26.924Z,14.90
2018-10-07T09:08:29.888Z,14.80
2018-10-07T09:11:32.821Z,14.80
2018-10-07T09:14:35.872Z,14.70
2018-10-07T09:17:38.782Z,14.60
2018-10-07T09:20:41.685Z,14.70
2018-10-07T09:23:44.613Z,14.80
2018-10-07T09:26:47.596Z,14.70
2018-10-07T09:29:50.660Z,14.80
2018-10-07T09:32:53.642Z,14.70
2018-10-07T09:35:56.505Z,14.70
2018-10-07T09:38:59.375Z,14.70
2018-10-07T09:42:02.348Z,14.80
2018-10-07T09:45:05.473Z,14.80
2018-10-07T09:48:08.513Z,14.80
2018-10-07T09:51:11.481Z,14.80
2018-10-07T09:54:14.417Z,14.80
2018-10-07T09:57:17.337Z,14.70
2018-10-07T10:00:24.901Z,14.80
2018-10-07T10:03:27.852Z,14.90
2018-10-07T10:06:30.841Z,15.10
2018-10-07T10:09:33.734Z,15.20
2018-10-07T10:12:36.842Z,15.30
2018-10-07T10:15:40.099Z,15.40
2018-10-07T10:18:50.259Z,15.50
2018-10-07T10:23:18.520Z,15.70
2018-10-07T10:28:42.611Z,15.80
2018-10-07T10:32:55.625Z,16.00
2018-10-07T10:36:43.141Z,16.20
2018-10-07T10:39:58.998Z,16.50
2018-10-07T10:43:13.458Z,16.60
2018-10-07T10:46:38.469Z,17.60
2018-10-07T10:50:17.805Z,18.00
2018-10-07T10:53:25.876Z,17.90
2018-10-07T10:56:38.801Z,18.10
2018-10-07T10:59:51.920Z,18.10
2018-10-07T11:03:20.320Z,18.10
2018-10-07T11:08:42.824Z,18.30
2018-10-07T11:12:02.446Z,18.60
2018-10-07T11:15:37.128Z,18.00
2018-10-07T11:19:09.074Z,17.60
2018-10-07T11:22:25.314Z,17.40
2018-10-07T11:26:15.127Z,17.50
2018-10-07T11:32:38.385Z,17.50
2018-10-07T11:36:09.500Z,17.60
2018-10-07T11:39:26.711Z,17.40
2018-10-07T11:43:10.269Z,17.50
2018-10-07T11:46:34.416Z,17.50
2018-10-07T11:51:07.269Z,17.50
2018-10-07T11:54:11.460Z,17.50
2018-10-07T11:57:14.908Z,17.60
2018-10-07T12:00:18.163Z,17.60
2018-10-07T12:03:22.415Z,17.70
2018-10-07T12:06:25.462Z,17.80
2018-10-07T12:09:28.861Z,17.80
2018-10-07T12:12:32.117Z,17.90
2018-10-07T12:15:35.379Z,17.80
2018-10-07T12:18:38.598Z,17.90
2018-10-07T12:21:42.090Z,17.90
2018-10-07T12:24:45.425Z,18.10
2018-10-07T12:27:48.748Z,18.20
2018-10-07T12:30:51.825Z,18.60
2018-10-07T12:33:54.757Z,19.00
2018-10-07T12:36:57.694Z,18.60
2018-10-07T12:40:00.687Z,18.40
2018-10-07T12:43:03.666Z,18.30
2018-10-07T12:46:06.625Z,18.30
2018-10-07T12:49:09.550Z,18.30
2018-10-07T12:52:12.501Z,18.40
2018-10-07T12:55:15.391Z,18.40
2018-10-07T12:58:18.305Z,18.40
2018-10-07T13:01:21.181Z,18.50
2018-10-07T13:04:24.139Z,18.40
2018-10-07T13:07:27.093Z,18.50
2018-10-07T13:10:29.998Z,18.60
2018-10-07T13:13:32.948Z,18.60
2018-10-07T13:16:36.360Z,18.60
2018-10-07T13:19:39.323Z,18.70
2018-10-07T13:22:42.277Z,18.80
2018-10-07T13:25:45.237Z,18.90
2018-10-07T13:28:48.141Z,19.00
2018-10-07T13:31:51.073Z,19.00
2018-10-07T13:34:53.989Z,19.00
2018-10-07T13:37:56.952Z,19.10
2018-10-07T13:40:59.887Z,19.00
2018-10-07T13:44:02.957Z,19.10
2018-10-07T13:47:05.971Z,19.00
2018-10-07T13:50:08.922Z,19.00
2018-10-07T13:53:11.878Z,19.10
2018-10-07T13:56:15.105Z,19.00
2018-10-07T13:59:18.030Z,19.10
2018-10-07T14:02:20.937Z,19.20
2018-10-07T14:05:23.960Z,19.20
2018-10-07T14:08:26.902Z,19.20
2018-10-07T14:11:29.917Z,19.10
2018-10-07T14:14:32.849Z,19.10
2018-10-07T14:17:35.794Z,18.80
2018-10-07T14:20:38.705Z,18.70
2018-10-07T14:23:41.634Z,18.80
2018-10-07T14:26:44.629Z,18.90
2018-10-07T14:29:47.628Z,18.80
2018-10-07T14:32:50.546Z,18.90
2018-10-07T14:35:53.445Z,19.00
2018-10-07T14:38:56.402Z,19.00
2018-10-07T14:41:59.345Z,19.30
2018-10-07T14:45:02.357Z,19.20
2018-10-07T14:48:05.329Z,19.30
2018-10-07T14:51:08.261Z,19.40
2018-10-07T14:54:13.019Z,19.40
2018-10-07T14:57:15.922Z,19.50
2018-10-07T15:00:18.864Z,19.40
2018-10-07T15:03:21.777Z,19.30
2018-10-07T15:06:24.768Z,18.90
2018-10-07T15:09:27.768Z,18.70
2018-10-07T15:12:30.753Z,18.40
2018-10-07T15:15:33.706Z,18.10
2018-10-07T15:18:36.592Z,17.80
2018-10-07T15:21:39.584Z,17.80
2018-10-07T15:24:42.504Z,17.70
2018-10-07T15:27:45.467Z,17.60
2018-10-07T15:30:48.426Z,17.50
2018-10-07T15:33:51.312Z,17.40
2018-10-07T15:36:54.277Z,17.40
2018-10-07T15:39:57.191Z,17.30
2018-10-07T15:43:00.180Z,17.30
2018-10-07T15:46:03.084Z,17.10
2018-10-07T15:49:06.177Z,17.10
2018-10-07T15:52:09.829Z,17.10
2018-10-07T15:55:12.779Z,17.10
2018-10-07T15:58:16.187Z,16.90
2018-10-07T16:01:19.383Z,16.90
2018-10-07T16:04:22.770Z,16.90
2018-10-07T16:07:26.012Z,16.80
2018-10-07T16:10:29.385Z,16.80
2018-10-07T16:13:32.368Z,16.70
2018-10-07T16:16:35.713Z,16.70
2018-10-07T16:19:38.772Z,16.70
2018-10-07T16:22:42.389Z,16.70
2018-10-07T16:25:45.725Z,16.60
2018-10-07T16:28:49.144Z,16.60
2018-10-07T16:31:52.536Z,16.60
2018-10-07T16:34:55.921Z,16.60
2018-10-07T16:37:59.524Z,16.50
2018-10-07T16:41:03.015Z,16.50
2018-10-07T16:44:06.233Z,16.50
2018-10-07T16:47:09.481Z,16.40
2018-10-07T16:50:12.754Z,16.20
2018-10-07T16:53:15.701Z,16.20
2018-10-07T16:56:18.658Z,16.70
2018-10-07T16:59:21.525Z,16.40
2018-10-07T17:02:24.472Z,16.30
2018-10-07T17:05:27.418Z,16.10
2018-10-07T17:08:30.373Z,15.90
2018-10-07T17:11:33.337Z,15.80
2018-10-07T17:14:36.257Z,15.60
2018-10-07T17:17:39.195Z,15.50
2018-10-07T17:20:42.158Z,15.50
2018-10-07T17:23:45.133Z,15.30
2018-10-07T17:26:48.069Z,15.20
2018-10-07T17:29:51.017Z,15.20
2018-10-07T17:32:53.948Z,15.00
2018-10-07T17:35:56.830Z,15.00
2018-10-07T17:38:59.780Z,15.00
2018-10-07T17:42:02.741Z,15.00
2018-10-07T17:45:05.713Z,15.00
2018-10-07T17:48:08.672Z,14.90
2018-10-07T17:51:11.517Z,14.80
2018-10-07T17:54:14.456Z,14.70
2018-10-07T17:57:17.381Z,14.70
2018-10-07T18:00:20.441Z,14.70
2018-10-07T18:03:23.609Z,14.70
2018-10-07T18:06:26.436Z,14.90
2018-10-07T18:09:29.353Z,14.70
2018-10-07T18:12:32.302Z,14.70
2018-10-07T18:15:35.210Z,14.80
2018-10-07T18:18:38.222Z,14.70
2018-10-07T18:21:41.567Z,14.70
2018-10-07T18:24:45.028Z,14.60
2018-10-07T18:27:48.397Z,14.50
2018-10-07T18:30:51.779Z,14.50
2018-10-07T18:33:55.161Z,14.40
2018-10-07T18:36:58.384Z,14.30
2018-10-07T18:40:01.432Z,14.20
2018-10-07T18:43:04.834Z,14.30
2018-10-07T18:46:08.109Z,14.30
2018-10-07T18:49:11.496Z,14.30
2018-10-07T18:52:14.790Z,14.30
2018-10-07T18:55:18.413Z,14.20
2018-10-07T18:58:21.436Z,14.20
2018-10-07T19:01:24.802Z,14.10
2018-10-07T19:04:27.874Z,14.00
2018-10-07T19:07:31.931Z,14.00
2018-10-07T19:10:36.508Z,13.90
2018-10-07T19:13:39.664Z,13.70
2018-10-07T19:16:43.330Z,13.80
2018-10-07T19:19:47.478Z,13.80
2018-10-07T19:22:51.543Z,13.70
2018-10-07T19:25:55.493Z,13.90
2018-10-07T19:28:58.935Z,13.80
2018-10-07T19:32:03.231Z,13.60
2018-10-07T19:35:06.674Z,13.60
2018-10-07T19:38:09.770Z,13.70
2018-10-07T19:41:13.229Z,13.70
2018-10-07T19:44:16.501Z,13.70
2018-10-07T19:47:19.593Z,13.60
2018-10-07T19:50:22.762Z,13.50
2018-10-07T19:53:25.791Z,13.50
2018-10-07T19:56:29.147Z,13.40
2018-10-07T19:59:32.126Z,13.50
2018-10-07T20:02:35.005Z,13.70
2018-10-07T20:05:37.901Z,13.60
2018-10-07T20:08:40.998Z,13.50
2018-10-07T20:11:43.952Z,13.40
2018-10-07T20:14:46.901Z,13.10
2018-10-07T20:17:50.018Z,13.10
2018-10-07T20:20:53.910Z,13.00
2018-10-07T20:23:57.029Z,13.10
2018-10-07T20:26:59.964Z,13.10
2018-10-07T20:30:03.028Z,13.00
2018-10-07T20:33:06.120Z,13.20
2018-10-07T20:36:09.145Z,13.20
2018-10-07T20:39:12.311Z,13.20
2018-10-07T20:42:15.272Z,13.10
2018-10-07T20:45:18.197Z,13.00
2018-10-07T20:48:21.240Z,13.00
2018-10-07T20:51:24.149Z,13.00
2018-10-07T20:54:27.097Z,13.10
2018-10-07T20:57:30.042Z,13.10
2018-10-07T21:00:32.991Z,13.10
2018-10-07T21:03:35.915Z,13.00
2018-10-07T21:06:38.846Z,13.10
2018-10-07T21:09:41.801Z,13.10
2018-10-07T21:12:44.752Z,13.00
2018-10-07T21:15:47.681Z,13.00
2018-10-07T21:18:50.613Z,12.90
2018-10-07T21:21:53.577Z,13.00
2018-10-07T21:24:56.580Z,13.00
2018-10-07T21:27:59.553Z,13.00
2018-10-07T21:31:02.546Z,12.80
2018-10-07T21:34:05.502Z,12.90
2018-10-07T21:37:08.462Z,12.90
2018-10-07T21:40:11.464Z,12.90
2018-10-07T21:43:14.417Z,12.80
2018-10-07T21:46:17.368Z,12.70
2018-10-07T21:49:20.340Z,12.60
2018-10-07T21:52:23.265Z,12.50
2018-10-07T21:55:26.178Z,12.50
2018-10-07T21:58:29.161Z,12.40
2018-10-07T22:01:32.050Z,12.50
2018-10-07T22:04:34.950Z,12.40
2018-10-07T22:07:37.865Z,12.30
2018-10-07T22:10:40.786Z,12.30
2018-10-07T22:13:43.670Z,12.30
2018-10-07T22:16:46.690Z,12.20
2018-10-07T22:19:49.668Z,12.10
2018-10-07T22:22:52.604Z,12.30
2018-10-07T22:25:55.561Z,12.40
2018-10-07T22:28:58.494Z,12.30
2018-10-07T22:32:01.404Z,12.30
2018-10-07T22:35:04.502Z,12.30
2018-10-07T22:38:07.413Z,12.40
2018-10-07T22:41:10.310Z,12.20
2018-10-07T22:44:13.278Z,12.30
2018-10-07T22:47:16.237Z,12.30
2018-10-07T22:50:19.233Z,12.30
2018-10-07T22:53:22.212Z,12.30
2018-10-07T22:56:25.221Z,12.30
2018-10-07T22:59:28.208Z,12.20
2018-10-07T23:02:31.229Z,12.10
2018-10-07T23:05:34.205Z,12.10
2018-10-07T23:08:37.165Z,12.00
2018-10-07T23:11:40.304Z,12.00
2018-10-07T23:14:43.251Z,11.90
2018-10-07T23:17:46.177Z,11.80
2018-10-07T23:20:49.252Z,11.90
2018-10-07T23:23:52.175Z,11.70
2018-10-07T23:26:55.208Z,11.60
2018-10-07T23:29:58.164Z,11.60
2018-10-07T23:33:01.100Z,11.60
2018-10-07T23:36:04.049Z,11.80
2018-10-07T23:39:09.101Z,11.90
2018-10-07T23:42:12.029Z,11.70
2018-10-07T23:45:14.937Z,11.80
2018-10-07T23:48:17.834Z,11.60
2018-10-07T23:51:20.781Z,11.70
2018-10-07T23:54:23.669Z,11.70
2018-10-07T23:57:26.614Z,11.80
